sensor_id;sensor_type;location;lat;lon;timestamp;P1;durP1;ratioP1;P2;durP2;ratioP2
16822;SDS011;8528;49.976;11.858;2022-10-17T00:00:00;12.13;;;3.50;;
16822;SDS011;8528;49.976;11.858;2022-10-17T00:02:27;5.03;;;2.93;;
16822;SDS011;8528;49.976;11.858;2022-10-17T00:04:54;30.20;;;3.97;;
16822;SDS011;8528;49.976;11.858;2022-10-17T00:07:21;18.37;;;3.93;;
16822;SDS011;8528;49.976;11.858;2022-10-17T00:09:47;9.00;;;3.37;;
16822;SDS011;8528;49.976;11.858;2022-10-17T00:12:14;3.77;;;2.97;;
16822;SDS011;8528;49.976;11.858;2022-10-17T00:14:41;4.47;;;2.70;;
16822;SDS011;8528;49.976;11.858;2022-10-17T00:17:08;5.07;;;2.73;;
16822;SDS011;8528;49.976;11.858;2022-10-17T00:19:35;12.07;;;4.30;;
16822;SDS011;8528;49.976;11.858;2022-10-17T00:22:02;11.30;;;3.83;;
16822;SDS011;8528;49.976;11.858;2022-10-17T00:24:29;4.80;;;2.53;;
16822;SDS011;8528;49.976;11.858;2022-10-17T00:26:56;6.63;;;2.80;;
16822;SDS011;8528;49.976;11.858;2022-10-17T00:29:23;3.27;;;2.43;;
16822;SDS011;8528;49.976;11.858;2022-10-17T00:31:53;4.53;;;3.00;;
16822;SDS011;8528;49.976;11.858;2022-10-17T00:34:21;6.50;;;3.20;;
16822;SDS011;8528;49.976;11.858;2022-10-17T00:36:48;10.93;;;3.40;;
16822;SDS011;8528;49.976;11.858;2022-10-17T00:39:15;13.57;;;3.87;;
16822;SDS011;8528;49.976;11.858;2022-10-17T00:41:42;8.40;;;3.20;;
16822;SDS011;8528;49.976;11.858;2022-10-17T00:46:58;12.07;;;3.70;;
16822;SDS011;8528;49.976;11.858;2022-10-17T00:49:31;6.37;;;3.40;;
16822;SDS011;8528;49.976;11.858;2022-10-17T00:52:02;3.00;;;2.70;;
16822;SDS011;8528;49.976;11.858;2022-10-17T00:54:39;6.30;;;2.80;;
16822;SDS011;8528;49.976;11.858;2022-10-17T00:57:23;2.97;;;2.77;;
16822;SDS011;8528;49.976;11.858;2022-10-17T00:59:51;3.03;;;2.73;;
16822;SDS011;8528;49.976;11.858;2022-10-17T01:02:22;3.23;;;2.80;;
16822;SDS011;8528;49.976;11.858;2022-10-17T01:04:51;3.07;;;2.63;;
16822;SDS011;8528;49.976;11.858;2022-10-17T01:07:22;2.87;;;2.57;;
16822;SDS011;8528;49.976;11.858;2022-10-17T01:09:49;3.10;;;2.90;;
16822;SDS011;8528;49.976;11.858;2022-10-17T01:12:27;3.00;;;2.70;;
16822;SDS011;8528;49.976;11.858;2022-10-17T01:20:28;2.60;;;2.40;;
16822;SDS011;8528;49.976;11.858;2022-10-17T01:29:27;5.23;;;3.10;;
16822;SDS011;8528;49.976;11.858;2022-10-17T01:31:58;7.97;;;3.07;;
16822;SDS011;8528;49.976;11.858;2022-10-17T01:34:59;6.77;;;3.20;;
16822;SDS011;8528;49.976;11.858;2022-10-17T01:37:36;12.13;;;3.30;;
16822;SDS011;8528;49.976;11.858;2022-10-17T01:40:14;25.37;;;3.47;;
16822;SDS011;8528;49.976;11.858;2022-10-17T01:42:47;15.77;;;3.70;;
16822;SDS011;8528;49.976;11.858;2022-10-17T01:45:19;17.87;;;4.13;;
16822;SDS011;8528;49.976;11.858;2022-10-17T01:47:50;4.67;;;3.00;;
16822;SDS011;8528;49.976;11.858;2022-10-17T01:50:22;21.90;;;4.70;;
16822;SDS011;8528;49.976;11.858;2022-10-17T01:52:54;19.97;;;4.17;;
16822;SDS011;8528;49.976;11.858;2022-10-17T01:55:29;27.37;;;4.37;;
16822;SDS011;8528;49.976;11.858;2022-10-17T01:58:02;13.93;;;3.67;;
16822;SDS011;8528;49.976;11.858;2022-10-17T02:00:36;8.17;;;3.60;;
16822;SDS011;8528;49.976;11.858;2022-10-17T02:03:06;10.63;;;3.67;;
16822;SDS011;8528;49.976;11.858;2022-10-17T02:05:36;8.63;;;3.23;;
16822;SDS011;8528;49.976;11.858;2022-10-17T02:08:06;3.30;;;2.80;;
16822;SDS011;8528;49.976;11.858;2022-10-17T02:10:41;2.70;;;2.50;;
16822;SDS011;8528;49.976;11.858;2022-10-17T02:18:51;5.10;;;3.10;;
16822;SDS011;8528;49.976;11.858;2022-10-17T02:21:25;5.53;;;3.40;;
16822;SDS011;8528;49.976;11.858;2022-10-17T02:24:25;4.70;;;2.93;;
16822;SDS011;8528;49.976;11.858;2022-10-17T02:27:07;3.53;;;2.83;;
16822;SDS011;8528;49.976;11.858;2022-10-17T02:29:52;8.27;;;3.03;;
16822;SDS011;8528;49.976;11.858;2022-10-17T02:32:27;4.30;;;3.30;;
16822;SDS011;8528;49.976;11.858;2022-10-17T02:35:06;10.40;;;3.17;;
16822;SDS011;8528;49.976;11.858;2022-10-17T02:37:35;8.03;;;4.27;;
16822;SDS011;8528;49.976;11.858;2022-10-17T02:40:04;19.33;;;4.53;;
16822;SDS011;8528;49.976;11.858;2022-10-17T02:42:33;9.47;;;3.23;;
16822;SDS011;8528;49.976;11.858;2022-10-17T02:45:01;27.17;;;3.57;;
16822;SDS011;8528;49.976;11.858;2022-10-17T02:47:34;15.77;;;3.40;;
16822;SDS011;8528;49.976;11.858;2022-10-17T02:50:21;20.90;;;4.83;;
16822;SDS011;8528;49.976;11.858;2022-10-17T02:52:58;19.57;;;3.50;;
16822;SDS011;8528;49.976;11.858;2022-10-17T02:55:31;4.33;;;2.97;;
16822;SDS011;8528;49.976;11.858;2022-10-17T02:58:15;19.27;;;3.77;;
16822;SDS011;8528;49.976;11.858;2022-10-17T03:00:46;9.43;;;3.07;;
16822;SDS011;8528;49.976;11.858;2022-10-17T03:03:23;8.30;;;3.10;;
16822;SDS011;8528;49.976;11.858;2022-10-17T03:05:52;15.83;;;2.67;;
16822;SDS011;8528;49.976;11.858;2022-10-17T03:08:19;25.03;;;3.27;;
16822;SDS011;8528;49.976;11.858;2022-10-17T03:10:47;9.90;;;3.20;;
16822;SDS011;8528;49.976;11.858;2022-10-17T03:13:14;31.40;;;4.47;;
16822;SDS011;8528;49.976;11.858;2022-10-17T03:15:42;22.83;;;5.63;;
16822;SDS011;8528;49.976;11.858;2022-10-17T03:18:08;7.37;;;3.40;;
16822;SDS011;8528;49.976;11.858;2022-10-17T03:20:35;17.87;;;4.37;;
16822;SDS011;8528;49.976;11.858;2022-10-17T03:23:02;7.40;;;3.83;;
16822;SDS011;8528;49.976;11.858;2022-10-17T03:25:29;19.50;;;4.13;;
16822;SDS011;8528;49.976;11.858;2022-10-17T03:27:57;7.03;;;4.67;;
16822;SDS011;8528;49.976;11.858;2022-10-17T03:30:26;11.73;;;4.67;;
16822;SDS011;8528;49.976;11.858;2022-10-17T03:32:53;7.40;;;3.80;;
16822;SDS011;8528;49.976;11.858;2022-10-17T03:35:19;6.47;;;3.53;;
16822;SDS011;8528;49.976;11.858;2022-10-17T03:37:46;11.30;;;4.30;;
16822;SDS011;8528;49.976;11.858;2022-10-17T03:40:13;10.07;;;4.20;;
16822;SDS011;8528;49.976;11.858;2022-10-17T03:42:40;11.90;;;4.70;;
16822;SDS011;8528;49.976;11.858;2022-10-17T03:45:07;9.73;;;3.67;;
16822;SDS011;8528;49.976;11.858;2022-10-17T03:47:34;13.87;;;4.80;;
16822;SDS011;8528;49.976;11.858;2022-10-17T03:50:01;8.13;;;4.37;;
16822;SDS011;8528;49.976;11.858;2022-10-17T03:52:28;6.90;;;3.20;;
16822;SDS011;8528;49.976;11.858;2022-10-17T03:54:56;5.50;;;3.30;;
16822;SDS011;8528;49.976;11.858;2022-10-17T03:57:23;7.27;;;3.23;;
16822;SDS011;8528;49.976;11.858;2022-10-17T03:59:49;15.30;;;3.70;;
16822;SDS011;8528;49.976;11.858;2022-10-17T04:02:17;14.77;;;3.37;;
16822;SDS011;8528;49.976;11.858;2022-10-17T04:04:44;8.43;;;3.30;;
16822;SDS011;8528;49.976;11.858;2022-10-17T04:07:11;18.07;;;4.90;;
16822;SDS011;8528;49.976;11.858;2022-10-17T04:09:38;11.83;;;3.47;;
16822;SDS011;8528;49.976;11.858;2022-10-17T04:12:04;6.47;;;3.17;;
16822;SDS011;8528;49.976;11.858;2022-10-17T04:14:31;10.87;;;5.43;;
16822;SDS011;8528;49.976;11.858;2022-10-17T04:16:58;5.90;;;4.57;;
16822;SDS011;8528;49.976;11.858;2022-10-17T04:19:27;13.00;;;3.83;;
16822;SDS011;8528;49.976;11.858;2022-10-17T04:21:54;6.37;;;3.30;;
16822;SDS011;8528;49.976;11.858;2022-10-17T04:24:21;10.00;;;3.83;;
16822;SDS011;8528;49.976;11.858;2022-10-17T04:26:48;8.53;;;3.93;;
16822;SDS011;8528;49.976;11.858;2022-10-17T04:29:16;4.97;;;2.90;;
16822;SDS011;8528;49.976;11.858;2022-10-17T04:31:45;21.10;;;5.13;;
16822;SDS011;8528;49.976;11.858;2022-10-17T04:34:12;11.13;;;3.97;;
16822;SDS011;8528;49.976;11.858;2022-10-17T04:36:42;7.17;;;3.40;;
16822;SDS011;8528;49.976;11.858;2022-10-17T04:39:09;8.73;;;3.33;;
16822;SDS011;8528;49.976;11.858;2022-10-17T04:41:35;5.60;;;3.50;;
16822;SDS011;8528;49.976;11.858;2022-10-17T04:44:02;7.70;;;3.40;;
16822;SDS011;8528;49.976;11.858;2022-10-17T04:46:29;5.03;;;3.43;;
16822;SDS011;8528;49.976;11.858;2022-10-17T04:48:56;3.30;;;2.97;;
16822;SDS011;8528;49.976;11.858;2022-10-17T04:51:22;6.10;;;3.10;;
16822;SDS011;8528;49.976;11.858;2022-10-17T04:53:52;6.80;;;3.40;;
16822;SDS011;8528;49.976;11.858;2022-10-17T04:56:20;9.30;;;3.63;;
16822;SDS011;8528;49.976;11.858;2022-10-17T04:58:48;5.10;;;3.27;;
16822;SDS011;8528;49.976;11.858;2022-10-17T05:01:17;5.87;;;3.30;;
16822;SDS011;8528;49.976;11.858;2022-10-17T05:03:45;6.27;;;3.47;;
16822;SDS011;8528;49.976;11.858;2022-10-17T05:06:17;5.33;;;3.20;;
16822;SDS011;8528;49.976;11.858;2022-10-17T05:08:47;10.97;;;4.27;;
16822;SDS011;8528;49.976;11.858;2022-10-17T05:11:17;4.73;;;3.70;;
16822;SDS011;8528;49.976;11.858;2022-10-17T05:13:48;8.47;;;3.93;;
16822;SDS011;8528;49.976;11.858;2022-10-17T05:16:16;9.07;;;4.33;;
16822;SDS011;8528;49.976;11.858;2022-10-17T05:18:43;5.00;;;3.20;;
16822;SDS011;8528;49.976;11.858;2022-10-17T05:21:14;5.93;;;3.80;;
16822;SDS011;8528;49.976;11.858;2022-10-17T05:23:41;5.80;;;3.87;;
16822;SDS011;8528;49.976;11.858;2022-10-17T05:26:08;10.13;;;4.30;;
16822;SDS011;8528;49.976;11.858;2022-10-17T05:28:34;12.60;;;4.13;;
16822;SDS011;8528;49.976;11.858;2022-10-17T05:31:03;4.50;;;3.43;;
16822;SDS011;8528;49.976;11.858;2022-10-17T05:33:31;6.10;;;3.33;;
16822;SDS011;8528;49.976;11.858;2022-10-17T05:35:59;11.03;;;3.87;;
16822;SDS011;8528;49.976;11.858;2022-10-17T05:38:26;10.07;;;4.23;;
16822;SDS011;8528;49.976;11.858;2022-10-17T05:41:00;5.60;;;3.50;;
16822;SDS011;8528;49.976;11.858;2022-10-17T05:43:29;4.53;;;3.20;;
16822;SDS011;8528;49.976;11.858;2022-10-17T05:45:57;10.83;;;3.70;;
16822;SDS011;8528;49.976;11.858;2022-10-17T05:48:24;6.57;;;4.23;;
16822;SDS011;8528;49.976;11.858;2022-10-17T05:50:56;5.67;;;3.20;;
16822;SDS011;8528;49.976;11.858;2022-10-17T05:53:29;17.80;;;4.17;;
16822;SDS011;8528;49.976;11.858;2022-10-17T05:55:58;5.07;;;3.13;;
16822;SDS011;8528;49.976;11.858;2022-10-17T05:58:26;11.77;;;4.20;;
16822;SDS011;8528;49.976;11.858;2022-10-17T06:01:13;6.57;;;3.60;;
16822;SDS011;8528;49.976;11.858;2022-10-17T06:03:40;7.27;;;4.07;;
16822;SDS011;8528;49.976;11.858;2022-10-17T06:06:08;7.63;;;4.20;;
16822;SDS011;8528;49.976;11.858;2022-10-17T06:08:38;7.90;;;4.47;;
16822;SDS011;8528;49.976;11.858;2022-10-17T06:11:05;6.80;;;3.53;;
16822;SDS011;8528;49.976;11.858;2022-10-17T06:13:35;4.10;;;3.60;;
16822;SDS011;8528;49.976;11.858;2022-10-17T06:16:03;4.57;;;3.80;;
16822;SDS011;8528;49.976;11.858;2022-10-17T06:18:30;8.23;;;4.20;;
16822;SDS011;8528;49.976;11.858;2022-10-17T06:21:01;5.47;;;4.40;;
16822;SDS011;8528;49.976;11.858;2022-10-17T06:23:29;5.17;;;3.80;;
16822;SDS011;8528;49.976;11.858;2022-10-17T06:25:57;5.63;;;3.90;;
16822;SDS011;8528;49.976;11.858;2022-10-17T06:28:25;5.53;;;3.93;;
16822;SDS011;8528;49.976;11.858;2022-10-17T06:30:52;5.70;;;4.30;;
16822;SDS011;8528;49.976;11.858;2022-10-17T06:33:19;10.60;;;6.70;;
16822;SDS011;8528;49.976;11.858;2022-10-17T06:35:50;10.73;;;7.60;;
16822;SDS011;8528;49.976;11.858;2022-10-17T06:38:18;10.13;;;6.43;;
16822;SDS011;8528;49.976;11.858;2022-10-17T06:40:45;10.90;;;7.57;;
16822;SDS011;8528;49.976;11.858;2022-10-17T06:43:12;9.13;;;6.90;;
16822;SDS011;8528;49.976;11.858;2022-10-17T06:45:40;12.20;;;7.33;;
16822;SDS011;8528;49.976;11.858;2022-10-17T06:48:07;9.43;;;6.93;;
16822;SDS011;8528;49.976;11.858;2022-10-17T06:50:34;8.57;;;6.67;;
16822;SDS011;8528;49.976;11.858;2022-10-17T06:53:01;11.10;;;7.30;;
16822;SDS011;8528;49.976;11.858;2022-10-17T06:55:27;8.23;;;6.50;;
16822;SDS011;8528;49.976;11.858;2022-10-17T06:57:56;10.30;;;7.67;;
16822;SDS011;8528;49.976;11.858;2022-10-17T07:00:23;8.10;;;6.60;;
16822;SDS011;8528;49.976;11.858;2022-10-17T07:02:51;6.77;;;6.07;;
16822;SDS011;8528;49.976;11.858;2022-10-17T07:05:18;7.00;;;6.30;;
16822;SDS011;8528;49.976;11.858;2022-10-17T07:07:45;5.57;;;5.00;;
16822;SDS011;8528;49.976;11.858;2022-10-17T07:10:16;7.47;;;6.30;;
16822;SDS011;8528;49.976;11.858;2022-10-17T07:12:43;6.03;;;5.33;;
16822;SDS011;8528;49.976;11.858;2022-10-17T07:15:11;4.77;;;4.27;;
16822;SDS011;8528;49.976;11.858;2022-10-17T07:17:38;5.67;;;4.50;;
16822;SDS011;8528;49.976;11.858;2022-10-17T07:20:05;5.70;;;4.53;;
16822;SDS011;8528;49.976;11.858;2022-10-17T07:22:32;8.80;;;5.87;;
16822;SDS011;8528;49.976;11.858;2022-10-17T07:25:02;5.73;;;4.83;;
16822;SDS011;8528;49.976;11.858;2022-10-17T07:27:29;6.33;;;4.70;;
16822;SDS011;8528;49.976;11.858;2022-10-17T07:29:56;4.33;;;3.83;;
16822;SDS011;8528;49.976;11.858;2022-10-17T07:32:24;6.57;;;4.03;;
16822;SDS011;8528;49.976;11.858;2022-10-17T07:34:51;5.70;;;3.40;;
16822;SDS011;8528;49.976;11.858;2022-10-17T07:37:17;8.87;;;3.90;;
16822;SDS011;8528;49.976;11.858;2022-10-17T07:39:44;5.27;;;3.10;;
16822;SDS011;8528;49.976;11.858;2022-10-17T07:42:10;3.33;;;3.00;;
16822;SDS011;8528;49.976;11.858;2022-10-17T07:44:40;4.87;;;3.50;;
16822;SDS011;8528;49.976;11.858;2022-10-17T07:47:06;3.60;;;3.30;;
16822;SDS011;8528;49.976;11.858;2022-10-17T07:49:33;6.47;;;3.23;;
16822;SDS011;8528;49.976;11.858;2022-10-17T07:52:00;5.80;;;3.30;;
16822;SDS011;8528;49.976;11.858;2022-10-17T07:54:26;5.80;;;3.57;;
16822;SDS011;8528;49.976;11.858;2022-10-17T07:56:53;3.90;;;3.57;;
16822;SDS011;8528;49.976;11.858;2022-10-17T07:59:20;4.03;;;3.40;;
16822;SDS011;8528;49.976;11.858;2022-10-17T08:01:47;3.63;;;3.23;;
16822;SDS011;8528;49.976;11.858;2022-10-17T08:04:14;3.50;;;2.90;;
16822;SDS011;8528;49.976;11.858;2022-10-17T08:06:42;4.80;;;3.30;;
16822;SDS011;8528;49.976;11.858;2022-10-17T08:09:09;4.30;;;3.10;;
16822;SDS011;8528;49.976;11.858;2022-10-17T08:11:38;5.27;;;3.30;;
16822;SDS011;8528;49.976;11.858;2022-10-17T08:14:05;4.87;;;3.50;;
16822;SDS011;8528;49.976;11.858;2022-10-17T08:16:32;3.50;;;3.20;;
16822;SDS011;8528;49.976;11.858;2022-10-17T08:18:59;4.50;;;3.77;;
16822;SDS011;8528;49.976;11.858;2022-10-17T08:21:26;6.53;;;4.17;;
16822;SDS011;8528;49.976;11.858;2022-10-17T08:23:53;5.80;;;4.33;;
16822;SDS011;8528;49.976;11.858;2022-10-17T08:26:20;2.90;;;2.70;;
16822;SDS011;8528;49.976;11.858;2022-10-17T08:28:46;3.17;;;2.87;;
16822;SDS011;8528;49.976;11.858;2022-10-17T08:31:16;3.10;;;2.80;;
16822;SDS011;8528;49.976;11.858;2022-10-17T08:33:45;4.50;;;3.30;;
16822;SDS011;8528;49.976;11.858;2022-10-17T08:36:13;3.83;;;3.03;;
16822;SDS011;8528;49.976;11.858;2022-10-17T08:38:41;3.70;;;2.80;;
16822;SDS011;8528;49.976;11.858;2022-10-17T08:47:26;3.37;;;2.47;;
16822;SDS011;8528;49.976;11.858;2022-10-17T08:50:29;4.63;;;3.00;;
16822;SDS011;8528;49.976;11.858;2022-10-17T08:56:12;3.50;;;2.47;;
16822;SDS011;8528;49.976;11.858;2022-10-17T08:59:13;4.47;;;2.50;;
16822;SDS011;8528;49.976;11.858;2022-10-17T09:10:10;2.10;;;1.90;;
16822;SDS011;8528;49.976;11.858;2022-10-17T09:13:01;3.83;;;1.80;;
16822;SDS011;8528;49.976;11.858;2022-10-17T09:21:51;2.57;;;1.97;;
16822;SDS011;8528;49.976;11.858;2022-10-17T09:27:01;6.07;;;1.90;;
16822;SDS011;8528;49.976;11.858;2022-10-17T09:29:29;3.40;;;1.77;;
16822;SDS011;8528;49.976;11.858;2022-10-17T09:32:03;2.53;;;2.00;;
16822;SDS011;8528;49.976;11.858;2022-10-17T09:34:40;2.20;;;2.00;;
16822;SDS011;8528;49.976;11.858;2022-10-17T09:37:10;1.73;;;1.63;;
16822;SDS011;8528;49.976;11.858;2022-10-17T09:39:39;2.07;;;1.83;;
16822;SDS011;8528;49.976;11.858;2022-10-17T09:42:13;2.77;;;2.10;;
16822;SDS011;8528;49.976;11.858;2022-10-17T09:50:20;4.27;;;1.80;;
16822;SDS011;8528;49.976;11.858;2022-10-17T09:52:56;2.80;;;1.70;;
16822;SDS011;8528;49.976;11.858;2022-10-17T09:58:07;2.53;;;1.50;;
16822;SDS011;8528;49.976;11.858;2022-10-17T10:00:37;7.87;;;1.80;;
16822;SDS011;8528;49.976;11.858;2022-10-17T10:06:01;2.77;;;2.00;;
16822;SDS011;8528;49.976;11.858;2022-10-17T10:08:33;3.10;;;1.53;;
16822;SDS011;8528;49.976;11.858;2022-10-17T10:11:06;1.60;;;1.50;;
16822;SDS011;8528;49.976;11.858;2022-10-17T10:13:38;2.90;;;1.50;;
16822;SDS011;8528;49.976;11.858;2022-10-17T10:18:59;1.90;;;1.20;;
16822;SDS011;8528;49.976;11.858;2022-10-17T10:21:30;1.40;;;1.30;;
16822;SDS011;8528;49.976;11.858;2022-10-17T10:24:04;1.70;;;1.50;;
16822;SDS011;8528;49.976;11.858;2022-10-17T10:26:44;2.47;;;1.30;;
16822;SDS011;8528;49.976;11.858;2022-10-17T10:29:21;1.63;;;1.17;;
16822;SDS011;8528;49.976;11.858;2022-10-17T10:32:07;1.30;;;1.10;;
16822;SDS011;8528;49.976;11.858;2022-10-17T10:34:37;1.77;;;1.50;;
16822;SDS011;8528;49.976;11.858;2022-10-17T10:37:17;1.50;;;1.40;;
16822;SDS011;8528;49.976;11.858;2022-10-17T10:39:53;4.87;;;1.30;;
16822;SDS011;8528;49.976;11.858;2022-10-17T10:44:49;1.47;;;1.30;;
16822;SDS011;8528;49.976;11.858;2022-10-17T10:47:19;2.30;;;1.30;;
16822;SDS011;8528;49.976;11.858;2022-10-17T10:50:07;2.20;;;1.20;;
16822;SDS011;8528;49.976;11.858;2022-10-17T10:52:42;1.40;;;1.30;;
16822;SDS011;8528;49.976;11.858;2022-10-17T10:55:14;3.13;;;1.60;;
16822;SDS011;8528;49.976;11.858;2022-10-17T10:57:49;2.30;;;1.40;;
16822;SDS011;8528;49.976;11.858;2022-10-17T11:00:19;2.70;;;1.67;;
16822;SDS011;8528;49.976;11.858;2022-10-17T11:05:21;3.93;;;1.70;;
16822;SDS011;8528;49.976;11.858;2022-10-17T11:16:39;3.87;;;1.80;;
16822;SDS011;8528;49.976;11.858;2022-10-17T11:19:16;1.90;;;1.57;;
16822;SDS011;8528;49.976;11.858;2022-10-17T11:21:47;2.57;;;1.60;;
16822;SDS011;8528;49.976;11.858;2022-10-17T11:24:23;2.40;;;1.57;;
16822;SDS011;8528;49.976;11.858;2022-10-17T11:27:03;2.00;;;1.80;;
16822;SDS011;8528;49.976;11.858;2022-10-17T11:29:32;2.27;;;1.40;;
16822;SDS011;8528;49.976;11.858;2022-10-17T11:32:07;3.80;;;1.80;;
16822;SDS011;8528;49.976;11.858;2022-10-17T11:34:49;4.37;;;1.87;;
16822;SDS011;8528;49.976;11.858;2022-10-17T11:37:27;2.30;;;1.60;;
16822;SDS011;8528;49.976;11.858;2022-10-17T11:40:01;3.43;;;1.87;;
16822;SDS011;8528;49.976;11.858;2022-10-17T11:42:37;1.90;;;1.80;;
16822;SDS011;8528;49.976;11.858;2022-10-17T11:45:17;3.57;;;1.70;;
16822;SDS011;8528;49.976;11.858;2022-10-17T11:47:48;3.03;;;1.60;;
16822;SDS011;8528;49.976;11.858;2022-10-17T11:50:25;2.03;;;1.63;;
16822;SDS011;8528;49.976;11.858;2022-10-17T11:53:17;2.00;;;1.80;;
16822;SDS011;8528;49.976;11.858;2022-10-17T11:55:47;2.63;;;1.90;;
16822;SDS011;8528;49.976;11.858;2022-10-17T11:58:22;3.80;;;2.00;;
16822;SDS011;8528;49.976;11.858;2022-10-17T12:01:12;2.10;;;1.87;;
16822;SDS011;8528;49.976;11.858;2022-10-17T12:03:53;4.37;;;1.70;;
16822;SDS011;8528;49.976;11.858;2022-10-17T12:12:08;2.47;;;1.80;;
16822;SDS011;8528;49.976;11.858;2022-10-17T12:14:36;3.90;;;1.97;;
16822;SDS011;8528;49.976;11.858;2022-10-17T12:17:21;2.80;;;1.53;;
16822;SDS011;8528;49.976;11.858;2022-10-17T12:19:53;3.57;;;2.10;;
16822;SDS011;8528;49.976;11.858;2022-10-17T12:22:47;2.83;;;1.70;;
16822;SDS011;8528;49.976;11.858;2022-10-17T12:25:18;2.23;;;1.73;;
16822;SDS011;8528;49.976;11.858;2022-10-17T12:28:41;3.80;;;1.70;;
16822;SDS011;8528;49.976;11.858;2022-10-17T12:30:53;3.17;;;1.83;;
16822;SDS011;8528;49.976;11.858;2022-10-17T12:34:13;2.83;;;1.70;;
16822;SDS011;8528;49.976;11.858;2022-10-17T12:38:47;2.20;;;1.87;;
16822;SDS011;8528;49.976;11.858;2022-10-17T12:44:34;2.00;;;1.60;;
16822;SDS011;8528;49.976;11.858;2022-10-17T12:46:55;2.20;;;1.70;;
16822;SDS011;8528;49.976;11.858;2022-10-17T12:54:59;1.90;;;1.70;;
16822;SDS011;8528;49.976;11.858;2022-10-17T13:00:36;2.37;;;1.67;;
16822;SDS011;8528;49.976;11.858;2022-10-17T13:03:40;3.30;;;1.90;;
16822;SDS011;8528;49.976;11.858;2022-10-17T13:06:17;3.17;;;1.80;;
16822;SDS011;8528;49.976;11.858;2022-10-17T13:08:48;2.50;;;1.67;;
16822;SDS011;8528;49.976;11.858;2022-10-17T13:11:29;1.80;;;1.60;;
16822;SDS011;8528;49.976;11.858;2022-10-17T13:13:59;4.17;;;1.73;;
16822;SDS011;8528;49.976;11.858;2022-10-17T13:16:32;3.53;;;1.70;;
16822;SDS011;8528;49.976;11.858;2022-10-17T13:19:02;2.57;;;2.23;;
16822;SDS011;8528;49.976;11.858;2022-10-17T13:21:49;3.07;;;2.00;;
16822;SDS011;8528;49.976;11.858;2022-10-17T13:24:37;3.90;;;2.47;;
16822;SDS011;8528;49.976;11.858;2022-10-17T13:27:19;2.40;;;1.60;;
16822;SDS011;8528;49.976;11.858;2022-10-17T13:29:53;2.20;;;2.00;;
16822;SDS011;8528;49.976;11.858;2022-10-17T13:32:24;3.30;;;1.80;;
16822;SDS011;8528;49.976;11.858;2022-10-17T13:35:13;2.00;;;1.80;;
16822;SDS011;8528;49.976;11.858;2022-10-17T13:37:42;2.13;;;1.70;;
16822;SDS011;8528;49.976;11.858;2022-10-17T13:40:19;2.43;;;1.70;;
16822;SDS011;8528;49.976;11.858;2022-10-17T13:43:17;2.60;;;1.80;;
16822;SDS011;8528;49.976;11.858;2022-10-17T13:45:48;2.40;;;1.60;;
16822;SDS011;8528;49.976;11.858;2022-10-17T13:48:17;7.63;;;1.70;;
16822;SDS011;8528;49.976;11.858;2022-10-17T13:50:47;2.70;;;1.90;;
16822;SDS011;8528;49.976;11.858;2022-10-17T13:53:24;6.07;;;2.47;;
16822;SDS011;8528;49.976;11.858;2022-10-17T13:58:48;2.07;;;1.77;;
16822;SDS011;8528;49.976;11.858;2022-10-17T14:01:36;2.53;;;2.00;;
16822;SDS011;8528;49.976;11.858;2022-10-17T14:04:03;2.20;;;2.00;;
16822;SDS011;8528;49.976;11.858;2022-10-17T14:06:43;7.20;;;2.37;;
16822;SDS011;8528;49.976;11.858;2022-10-17T14:09:17;3.03;;;1.83;;
16822;SDS011;8528;49.976;11.858;2022-10-17T14:14:36;3.33;;;2.13;;
16822;SDS011;8528;49.976;11.858;2022-10-17T14:17:25;4.40;;;2.13;;
16822;SDS011;8528;49.976;11.858;2022-10-17T14:20:01;2.07;;;1.87;;
16822;SDS011;8528;49.976;11.858;2022-10-17T14:22:50;2.73;;;2.00;;
16822;SDS011;8528;49.976;11.858;2022-10-17T14:25:40;2.43;;;2.20;;
16822;SDS011;8528;49.976;11.858;2022-10-17T14:30:38;4.80;;;2.40;;
16822;SDS011;8528;49.976;11.858;2022-10-17T14:35:53;2.83;;;1.80;;
16822;SDS011;8528;49.976;11.858;2022-10-17T14:38:21;3.33;;;2.40;;
16822;SDS011;8528;49.976;11.858;2022-10-17T14:40:52;6.47;;;2.30;;
16822;SDS011;8528;49.976;11.858;2022-10-17T14:44:01;3.17;;;2.17;;
16822;SDS011;8528;49.976;11.858;2022-10-17T14:46:32;2.70;;;2.50;;
16822;SDS011;8528;49.976;11.858;2022-10-17T14:49:05;2.90;;;2.30;;
16822;SDS011;8528;49.976;11.858;2022-10-17T14:54:40;3.33;;;2.13;;
16822;SDS011;8528;49.976;11.858;2022-10-17T14:59:59;3.53;;;2.07;;
16822;SDS011;8528;49.976;11.858;2022-10-17T15:02:27;4.10;;;2.67;;
16822;SDS011;8528;49.976;11.858;2022-10-17T15:04:55;3.13;;;2.83;;
16822;SDS011;8528;49.976;11.858;2022-10-17T15:07:22;4.43;;;2.67;;
16822;SDS011;8528;49.976;11.858;2022-10-17T15:09:50;3.70;;;3.00;;
16822;SDS011;8528;49.976;11.858;2022-10-17T15:12:22;7.33;;;2.90;;
16822;SDS011;8528;49.976;11.858;2022-10-17T15:14:50;3.40;;;2.97;;
16822;SDS011;8528;49.976;11.858;2022-10-17T15:17:25;2.93;;;2.60;;
16822;SDS011;8528;49.976;11.858;2022-10-17T15:19:55;4.43;;;2.70;;
16822;SDS011;8528;49.976;11.858;2022-10-17T15:22:23;3.77;;;3.23;;
16822;SDS011;8528;49.976;11.858;2022-10-17T15:24:50;6.40;;;4.30;;
16822;SDS011;8528;49.976;11.858;2022-10-17T15:27:22;5.60;;;3.93;;
16822;SDS011;8528;49.976;11.858;2022-10-17T15:29:53;5.13;;;3.50;;
16822;SDS011;8528;49.976;11.858;2022-10-17T15:32:20;4.00;;;2.83;;
16822;SDS011;8528;49.976;11.858;2022-10-17T15:34:46;4.00;;;2.90;;
16822;SDS011;8528;49.976;11.858;2022-10-17T15:37:20;3.87;;;2.70;;
16822;SDS011;8528;49.976;11.858;2022-10-17T15:39:53;4.60;;;2.90;;
16822;SDS011;8528;49.976;11.858;2022-10-17T15:42:27;6.27;;;2.60;;
16822;SDS011;8528;49.976;11.858;2022-10-17T15:44:55;5.23;;;2.77;;
16822;SDS011;8528;49.976;11.858;2022-10-17T15:47:27;4.03;;;2.73;;
16822;SDS011;8528;49.976;11.858;2022-10-17T15:49:57;3.60;;;2.50;;
16822;SDS011;8528;49.976;11.858;2022-10-17T15:52:25;6.27;;;3.30;;
16822;SDS011;8528;49.976;11.858;2022-10-17T15:54:52;5.20;;;3.30;;
16822;SDS011;8528;49.976;11.858;2022-10-17T15:57:25;6.33;;;4.10;;
16822;SDS011;8528;49.976;11.858;2022-10-17T15:59:54;5.73;;;4.40;;
16822;SDS011;8528;49.976;11.858;2022-10-17T16:02:25;9.17;;;4.00;;
16822;SDS011;8528;49.976;11.858;2022-10-17T16:04:52;29.77;;;17.57;;
16822;SDS011;8528;49.976;11.858;2022-10-17T16:07:19;26.57;;;15.70;;
16822;SDS011;8528;49.976;11.858;2022-10-17T16:09:47;28.43;;;17.97;;
16822;SDS011;8528;49.976;11.858;2022-10-17T16:12:17;27.80;;;16.07;;
16822;SDS011;8528;49.976;11.858;2022-10-17T16:14:59;18.30;;;10.40;;
16822;SDS011;8528;49.976;11.858;2022-10-17T16:17:27;27.10;;;13.27;;
16822;SDS011;8528;49.976;11.858;2022-10-17T16:19:54;12.27;;;8.20;;
16822;SDS011;8528;49.976;11.858;2022-10-17T16:22:25;32.07;;;14.67;;
16822;SDS011;8528;49.976;11.858;2022-10-17T16:24:58;48.63;;;21.07;;
16822;SDS011;8528;49.976;11.858;2022-10-17T16:27:32;30.33;;;15.67;;
16822;SDS011;8528;49.976;11.858;2022-10-17T16:30:00;22.00;;;10.33;;
16822;SDS011;8528;49.976;11.858;2022-10-17T16:32:27;64.40;;;23.73;;
16822;SDS011;8528;49.976;11.858;2022-10-17T16:34:54;69.13;;;25.43;;
16822;SDS011;8528;49.976;11.858;2022-10-17T16:37:21;40.47;;;16.27;;
16822;SDS011;8528;49.976;11.858;2022-10-17T16:39:48;26.10;;;14.63;;
16822;SDS011;8528;49.976;11.858;2022-10-17T16:42:18;13.13;;;8.50;;
16822;SDS011;8528;49.976;11.858;2022-10-17T16:44:55;22.30;;;12.80;;
16822;SDS011;8528;49.976;11.858;2022-10-17T16:47:21;13.00;;;9.60;;
16822;SDS011;8528;49.976;11.858;2022-10-17T16:49:48;15.50;;;10.40;;
16822;SDS011;8528;49.976;11.858;2022-10-17T16:52:15;34.20;;;19.90;;
16822;SDS011;8528;49.976;11.858;2022-10-17T16:54:42;24.80;;;15.73;;
16822;SDS011;8528;49.976;11.858;2022-10-17T16:57:09;32.60;;;15.50;;
16822;SDS011;8528;49.976;11.858;2022-10-17T16:59:35;17.67;;;12.53;;